Time;durP1;ratioP1;P1;durP2;ratioP2;P2;SDS_P1;SDS_P2;PMS_P1;PMS_P2;Temp;Humidity;BMP_temperature;BMP_pressure;BME280_temperature;BME280_humidity;BME280_pressure;Samples;Min_cycle;Max_cycle;Signal;HPM_P1;HPM_P2
2024/03/20 00:01:13;;;;;;;8.95;2.88;;;;;;;9.77;100.00;101981.25;6084060;19;20011;-74
2024/03/20 00:03:16;;;;;;;11.02;3.97;;;;;;;9.79;100.00;101979.47;6084687;19;20420;-74
2024/03/20 00:05:20;;;;;;;7.78;3.03;;;;;;;9.78;100.00;101983.00;6084736;19;20043;-74
2024/03/20 00:07:27;;;;;;;6.32;2.50;;;;;;;9.78;100.00;101988.25;6085718;19;20007;-74
2024/03/20 00:09:31;;;;;;;6.13;2.83;;;;;;;9.76;100.00;101980.38;6085451;19;20007;-75
2024/03/20 00:11:37;;;;;;;10.52;2.92;;;;;;;9.76;100.00;101984.78;6084867;19;20031;-74
2024/03/20 00:13:40;;;;;;;8.23;3.70;;;;;;;9.78;100.00;101991.72;6084673;19;20003;-74
2024/03/20 00:15:47;;;;;;;12.38;4.03;;;;;;;9.79;100.00;101992.59;6085910;19;20031;-74
2024/03/20 00:17:48;;;;;;;4.90;2.70;;;;;;;9.80;100.00;101987.31;6085120;19;20034;-74
2024/03/20 00:19:54;;;;;;;8.38;2.95;;;;;;;9.80;100.00;101983.84;6085242;19;20042;-74
2024/03/20 00:21:57;;;;;;;8.60;3.63;;;;;;;9.77;100.00;101986.50;6083678;19;20006;-74
2024/03/20 00:24:01;;;;;;;6.93;3.42;;;;;;;9.77;100.00;101984.75;6082728;19;20035;-74
2024/03/20 00:26:06;;;;;;;7.43;3.30;;;;;;;9.72;100.00;101983.13;6084665;19;20018;-75
2024/03/20 00:28:12;;;;;;;9.93;3.25;;;;;;;9.68;100.00;101980.53;6085898;19;20011;-74
2024/03/20 00:30:16;;;;;;;8.73;3.00;;;;;;;9.62;100.00;101980.66;6084222;19;20002;-74
2024/03/20 00:32:23;;;;;;;9.57;2.42;;;;;;;9.61;100.00;101978.94;6084900;19;20011;-74
2024/03/20 00:34:28;;;;;;;9.10;3.45;;;;;;;9.56;100.00;101970.28;6085060;19;20007;-74
2024/03/20 00:36:33;;;;;;;7.85;3.10;;;;;;;9.55;100.00;101975.53;6076234;19;20049;-74
2024/03/20 00:38:34;;;;;;;7.35;3.45;;;;;;;9.53;100.00;101967.72;6082632;19;20010;-74
2024/03/20 00:40:38;;;;;;;9.65;3.00;;;;;;;9.53;100.00;101972.94;6083630;19;20384;-74
2024/03/20 00:42:42;;;;;;;11.07;3.25;;;;;;;9.54;100.00;101968.56;6082627;19;20384;-74
2024/03/20 00:44:43;;;;;;;6.63;2.80;;;;;;;9.51;100.00;101969.50;6082653;19;20010;-74
2024/03/20 00:46:47;;;;;;;8.35;3.08;;;;;;;9.50;100.00;101974.75;6081612;19;20014;-74
2024/03/20 00:48:54;;;;;;;7.63;2.97;;;;;;;9.41;100.00;101967.91;6083443;19;20080;-74
2024/03/20 00:50:58;;;;;;;10.60;3.25;;;;;;;9.39;100.00;101972.31;6083646;19;20014;-74
2024/03/20 00:53:02;;;;;;;6.05;2.83;;;;;;;9.38;100.00;101962.72;6081634;19;20019;-74
2024/03/20 00:55:09;;;;;;;6.13;2.90;;;;;;;9.31;100.00;101961.94;6085167;19;20035;-74
2024/03/20 00:57:13;;;;;;;6.72;2.88;;;;;;;9.31;100.00;101958.47;6083394;19;20006;-74
2024/03/20 00:59:20;;;;;;;6.47;2.65;;;;;;;9.25;100.00;101958.59;6082613;19;20019;-74
2024/03/20 01:01:24;;;;;;;7.80;2.95;;;;;;;9.22;100.00;101970.84;6086327;19;20762;-74
2024/03/20 01:03:28;;;;;;;7.03;2.80;;;;;;;9.16;100.00;101968.34;6086804;19;20329;-74
2024/03/20 01:05:37;;;;;;;6.43;2.65;;;;;;;9.15;100.00;101965.72;6084661;19;20007;-74
2024/03/20 01:07:39;;;;;;;11.90;3.72;;;;;;;9.13;100.00;101972.75;6085255;19;20007;-74
2024/03/20 01:09:42;;;;;;;9.98;3.60;;;;;;;9.11;100.00;101972.78;6086692;19;20283;-74
2024/03/20 01:11:44;;;;;;;6.13;2.75;;;;;;;9.07;100.00;101973.72;6081478;19;20003;-75
2024/03/20 01:13:48;;;;;;;12.10;3.40;;;;;;;9.03;100.00;101966.81;6084217;19;20007;-76
2024/03/20 01:15:52;;;;;;;7.30;3.22;;;;;;;9.03;100.00;101958.94;6083672;19;20007;-74
2024/03/20 01:17:56;;;;;;;11.43;3.85;;;;;;;9.00;100.00;101961.59;6083123;19;20046;-73
2024/03/20 01:20:00;;;;;;;7.75;3.30;;;;;;;8.95;100.00;101966.94;6084166;19;20153;-73
2024/03/20 01:22:08;;;;;;;8.30;3.05;;;;;;;8.93;100.00;101952.13;6084169;19;20073;-74
2024/03/20 01:24:12;;;;;;;6.13;3.40;;;;;;;8.90;100.00;101957.38;6083807;19;20007;-76
2024/03/20 01:26:17;;;;;;;7.50;3.90;;;;;;;8.90;100.00;101966.13;6079932;19;20010;-75
2024/03/20 01:28:18;;;;;;;9.32;3.30;;;;;;;8.87;100.00;101960.06;6082273;19;20039;-75
2024/03/20 01:30:24;;;;;;;6.35;2.90;;;;;;;8.85;100.00;101954.84;6083076;19;20006;-75
2024/03/20 01:32:25;;;;;;;6.13;2.85;;;;;;;8.81;100.00;101952.28;6082995;19;20038;-75
2024/03/20 01:34:31;;;;;;;7.03;3.28;;;;;;;8.83;100.00;101953.16;6087140;19;20010;-76
2024/03/20 01:36:37;;;;;;;7.45;3.00;;;;;;;8.79;100.00;101953.19;6089778;19;20006;-73
2024/03/20 01:38:44;;;;;;;6.97;3.38;;;;;;;8.72;100.00;101946.31;6088834;19;20462;-74
2024/03/20 01:40:45;;;;;;;11.02;3.13;;;;;;;8.71;100.00;101952.41;6087269;19;20010;-76
2024/03/20 01:42:49;;;;;;;7.45;3.42;;;;;;;8.70;100.00;101953.31;6086016;19;20014;-74
2024/03/20 01:45:11;;;;;;;9.05;3.33;;;;;;;8.70;100.00;101945.44;6086045;19;20010;-76
2024/03/20 01:47:15;;;;;;;10.68;3.00;;;;;;;8.67;100.00;101948.13;6087140;19;20002;-75
2024/03/20 01:49:19;;;;;;;8.65;3.22;;;;;;;8.66;100.00;101945.50;6085981;19;20467;-76
2024/03/20 01:51:21;;;;;;;8.50;3.20;;;;;;;8.64;100.00;101937.69;6086994;19;20047;-75
2024/03/20 01:53:28;;;;;;;7.68;3.15;;;;;;;8.69;100.00;101925.41;6083015;19;20021;-76
2024/03/20 01:55:38;;;;;;;6.43;3.47;;;;;;;8.74;100.00;101923.56;6087680;19;20017;-75
2024/03/20 01:57:42;;;;;;;7.50;3.03;;;;;;;8.82;100.00;101922.56;6087204;19;20074;-76
2024/03/20 01:59:46;;;;;;;7.75;3.17;;;;;;;8.85;100.00;101912.06;6086337;19;20014;-75
2024/03/20 02:01:50;;;;;;;7.13;2.92;;;;;;;8.86;100.00;101904.16;6081739;19;20075;-75
2024/03/20 02:03:54;;;;;;;8.48;4.00;;;;;;;8.95;100.00;101900.50;6085192;19;20006;-74
2024/03/20 02:05:55;;;;;;;8.70;3.17;;;;;;;8.96;100.00;101913.59;6087304;19;20022;-73
2024/03/20 02:08:00;;;;;;;11.63;3.45;;;;;;;8.97;100.00;101910.06;6087501;19;20359;-74
2024/03/20 02:10:01;;;;;;;6.75;3.22;;;;;;;8.93;100.00;101911.03;6088759;19;20114;-74
2024/03/20 02:12:08;;;;;;;7.47;3.75;;;;;;;8.91;100.00;101909.31;6088321;19;20003;-74
2024/03/20 02:14:10;;;;;;;10.40;3.65;;;;;;;8.86;100.00;101908.53;6089107;19;20014;-76
2024/03/20 02:16:14;;;;;;;11.73;3.47;;;;;;;8.86;100.00;101905.91;6088695;19;20010;-74
2024/03/20 02:18:18;;;;;;;10.70;3.45;;;;;;;8.84;100.00;101905.91;6088999;19;20619;-74
2024/03/20 02:20:22;;;;;;;6.25;2.88;;;;;;;8.88;100.00;101909.38;6086540;19;19999;-75
2024/03/20 02:22:26;;;;;;;5.68;2.50;;;;;;;8.84;100.00;101907.69;6086257;19;20282;-74
2024/03/20 02:24:30;;;;;;;8.57;3.55;;;;;;;8.82;100.00;101906.84;6087360;19;20034;-74
2024/03/20 02:26:34;;;;;;;6.82;3.03;;;;;;;8.79;100.00;101906.03;6087163;19;20099;-74
2024/03/20 02:28:38;;;;;;;12.13;3.10;;;;;;;8.74;100.00;101906.94;6088219;19;20357;-74
2024/03/20 02:30:41;;;;;;;9.90;3.03;;;;;;;8.71;100.00;101904.38;6083503;19;20002;-74
2024/03/20 02:32:45;;;;;;;7.75;3.40;;;;;;;8.68;100.00;101909.69;6086880;19;20046;-74
2024/03/20 02:34:49;;;;;;;8.15;3.25;;;;;;;8.65;100.00;101912.34;6083898;19;20014;-75
2024/03/20 02:36:53;;;;;;;10.45;3.90;;;;;;;8.60;100.00;101903.69;6086377;19;20006;-74
2024/03/20 02:38:57;;;;;;;9.85;3.10;;;;;;;8.57;100.00;101909.84;6084210;19;20034;-74
2024/03/20 02:41:01;;;;;;;9.65;3.58;;;;;;;8.51;100.00;101904.72;6086014;19;20027;-74
2024/03/20 02:43:05;;;;;;;8.82;3.72;;;;;;;8.46;100.00;101907.38;6082969;19;20014;-74
2024/03/20 02:45:07;;;;;;;9.70;2.65;;;;;;;8.41;100.00;101906.59;6083319;19;20246;-74
2024/03/20 02:47:13;;;;;;;12.25;3.13;;;;;;;8.41;100.00;101905.72;6084364;19;20038;-74
2024/03/20 02:49:17;;;;;;;5.95;3.08;;;;;;;8.41;100.00;101909.22;6085494;19;20006;-74
2024/03/20 02:51:21;;;;;;;8.30;4.05;;;;;;;8.45;100.00;101904.78;6085777;19;20003;-74
2024/03/20 02:53:25;;;;;;;9.93;3.15;;;;;;;8.48;100.00;101910.00;6082345;19;20838;-75
2024/03/20 02:55:29;;;;;;;9.88;3.28;;;;;;;8.42;100.00;101910.06;6084952;19;20027;-74
2024/03/20 02:57:33;;;;;;;6.47;2.65;;;;;;;8.36;100.00;101906.63;6083643;19;20006;-74
2024/03/20 02:59:34;;;;;;;9.90;3.50;;;;;;;8.36;100.00;101909.22;6084262;19;20006;-74
2024/03/20 03:01:38;;;;;;;5.38;3.20;;;;;;;8.31;100.00;101902.31;6085755;19;20006;-74
2024/03/20 03:03:41;;;;;;;6.35;3.25;;;;;;;8.37;100.00;101907.47;6085987;19;20498;-74
2024/03/20 03:05:43;;;;;;;8.55;3.45;;;;;;;8.38;100.00;101908.38;6085541;19;20011;-74
2024/03/20 03:07:47;;;;;;;8.02;3.35;;;;;;;8.35;100.00;101910.13;6085309;19;20006;-74
2024/03/20 03:09:51;;;;;;;5.47;2.72;;;;;;;8.30;100.00;101903.22;6084693;19;20010;-74
2024/03/20 03:12:02;;;;;;;8.95;3.50;;;;;;;8.27;100.00;101898.03;6080213;19;20021;-74
2024/03/20 03:14:08;;;;;;;9.23;3.05;;;;;;;8.28;100.00;101897.13;6084185;19;20007;-74
2024/03/20 03:16:14;;;;;;;11.15;4.38;;;;;;;8.29;100.00;101899.75;6083367;19;20006;-75
2024/03/20 03:18:18;;;;;;;9.57;3.92;;;;;;;8.37;100.00;101894.38;6084415;19;22697;-75
2024/03/20 03:20:21;;;;;;;6.68;3.13;;;;;;;8.36;100.00;101897.91;6086602;19;20162;-74
2024/03/20 03:22:25;;;;;;;8.77;3.40;;;;;;;8.42;100.00;101897.81;6084939;19;20491;-75
2024/03/20 03:24:29;;;;;;;8.88;3.20;;;;;;;8.47;100.00;101895.16;6086792;19;20264;-74
2024/03/20 03:26:31;;;;;;;10.13;3.42;;;;;;;8.39;100.00;101894.38;6087493;19;20013;-75
2024/03/20 03:28:37;;;;;;;12.38;3.20;;;;;;;8.39;100.00;101891.75;6086273;19;20034;-74
2024/03/20 03:30:41;;;;;;;9.80;3.60;;;;;;;8.38;100.00;101896.13;6087491;19;20059;-74
2024/03/20 03:32:45;;;;;;;9.48;3.53;;;;;;;8.33;100.00;101895.31;6079595;19;20040;-74
2024/03/20 03:34:49;;;;;;;7.40;3.80;;;;;;;8.36;100.00;101896.13;6083027;19;20327;-74
2024/03/20 03:36:53;;;;;;;7.50;2.75;;;;;;;8.32;100.00;101894.47;6083573;19;20018;-75
2024/03/20 03:38:54;;;;;;;9.00;3.65;;;;;;;8.29;100.00;101894.50;6084516;19;20003;-75
2024/03/20 03:41:02;;;;;;;8.30;3.90;;;;;;;8.34;100.00;101895.28;6085325;19;20514;-75
2024/03/20 03:43:09;;;;;;;11.07;3.75;;;;;;;8.41;100.00;101893.50;6085539;19;20021;-75
2024/03/20 03:45:15;;;;;;;13.63;3.50;;;;;;;8.41;100.00;101892.63;6086017;19;20002;-74
2024/03/20 03:47:22;;;;;;;10.30;3.40;;;;;;;8.36;100.00;101895.28;6086631;19;20013;-74
2024/03/20 03:49:26;;;;;;;13.27;3.65;;;;;;;8.32;100.00;101891.84;6085603;19;20003;-75
2024/03/20 03:51:30;;;;;;;8.88;3.45;;;;;;;8.28;100.00;101897.13;6087507;19;20078;-75
2024/03/20 03:53:34;;;;;;;8.85;3.63;;;;;;;8.25;100.00;101894.56;6083709;19;20010;-73
2024/03/20 03:55:38;;;;;;;7.38;3.63;;;;;;;8.20;100.00;101899.88;6087549;19;20455;-74
2024/03/20 03:57:42;;;;;;;8.35;3.30;;;;;;;8.18;100.00;101900.78;6087002;19;20014;-74
2024/03/20 03:59:46;;;;;;;10.25;3.90;;;;;;;8.11;100.00;101907.84;6087010;19;20003;-74
2024/03/20 04:01:52;;;;;;;11.80;4.20;;;;;;;8.05;100.00;101906.16;6085402;19;20021;-73
2024/03/20 04:03:56;;;;;;;8.15;3.40;;;;;;;8.04;100.00;101904.44;6088026;19;20010;-74
2024/03/20 04:06:00;;;;;;;9.93;4.13;;;;;;;8.07;100.00;101909.63;6087170;19;20038;-76
2024/03/20 04:08:04;;;;;;;9.18;3.45;;;;;;;8.09;100.00;101902.63;6085328;19;20021;-76
2024/03/20 04:10:09;;;;;;;14.55;4.80;;;;;;;8.17;100.00;101913.00;6086580;19;20070;-75
2024/03/20 04:12:13;;;;;;;7.80;3.28;;;;;;;8.22;100.00;101903.34;6083926;19;20015;-73
2024/03/20 04:14:17;;;;;;;9.50;4.35;;;;;;;8.19;100.00;101908.63;6085475;19;20013;-76
2024/03/20 04:16:19;;;;;;;10.48;4.82;;;;;;;8.10;100.00;101911.34;6085955;19;20542;-76
2024/03/20 04:18:25;;;;;;;14.50;5.03;;;;;;;8.04;100.00;101919.28;6084983;19;21312;-75
2024/03/20 04:20:27;;;;;;;11.60;3.88;;;;;;;8.02;100.00;101916.66;6085730;19;20018;-75
2024/03/20 04:22:32;;;;;;;12.98;4.60;;;;;;;8.02;100.00;101911.44;6085351;19;20014;-74
2024/03/20 04:24:33;;;;;;;10.73;4.72;;;;;;;8.02;100.00;101913.19;6086476;19;20520;-73
2024/03/20 04:26:37;;;;;;;10.38;3.60;;;;;;;8.00;100.00;101912.34;6084737;19;20022;-74
2024/03/20 04:28:41;;;;;;;11.85;4.10;;;;;;;7.95;100.00;101915.00;6083470;19;20474;-74
2024/03/20 04:30:43;;;;;;;13.80;4.15;;;;;;;7.94;100.00;101917.66;6081931;19;20030;-74
2024/03/20 04:32:47;;;;;;;11.68;4.38;;;;;;;7.93;100.00;101921.19;6084823;19;20332;-74
2024/03/20 04:34:53;;;;;;;6.65;3.72;;;;;;;7.91;100.00;101915.94;6086131;19;20018;-74
2024/03/20 04:36:57;;;;;;;10.90;4.65;;;;;;;7.89;100.00;101915.09;6085411;19;20017;-74
2024/03/20 04:39:01;;;;;;;9.93;4.07;;;;;;;7.89;100.00;101920.31;6083331;19;20018;-73
